sensor_id;sensor_type;location;lat;lon;timestamp;pressure;altitude;pressure_sealevel;temperature;humidity
75089;BME280;63673;49.928;8.150;2023-02-22T00:00:07;990.77;;;4.37;100
75089;BME280;63673;49.928;8.150;2023-02-22T00:01:04;990.77;;;4.37;100
75089;BME280;63673;49.928;8.150;2023-02-22T00:02:01;990.73;;;4.36;100
75089;BME280;63673;49.928;8.150;2023-02-22T00:03:12;990.74;;;4.32;100
75089;BME280;63673;49.928;8.150;2023-02-22T00:04:13;990.75;;;4.31;100
75089;BME280;63673;49.928;8.150;2023-02-22T00:05:15;990.72;;;4.29;100
75089;BME280;63673;49.928;8.150;2023-02-22T00:06:19;990.72;;;4.27;100
75089;BME280;63673;49.928;8.150;2023-02-22T00:07:23;990.71;;;4.25;100
75089;BME280;63673;49.928;8.150;2023-02-22T00:08:26;990.64;;;4.24;100
75089;BME280;63673;49.928;8.150;2023-02-22T00:09:28;990.7;;;4.23;100
75089;BME280;63673;49.928;8.150;2023-02-22T00:10:29;990.71;;;4.22;100
75089;BME280;63673;49.928;8.150;2023-02-22T00:11:30;990.67;;;4.21;100
75089;BME280;63673;49.928;8.150;2023-02-22T00:12:32;990.68;;;4.21;100
75089;BME280;63673;49.928;8.150;2023-02-22T00:13:34;990.67;;;4.2;100
75089;BME280;63673;49.928;8.150;2023-02-22T00:14:37;990.69;;;4.2;100
75089;BME280;63673;49.928;8.150;2023-02-22T00:15:38;990.67;;;4.19;100
75089;BME280;63673;49.928;8.150;2023-02-22T00:16:39;990.68;;;4.18;100
75089;BME280;63673;49.928;8.150;2023-02-22T00:17:41;990.64;;;4.17;100
75089;BME280;63673;49.928;8.150;2023-02-22T00:18:44;990.6;;;4.16;100
75089;BME280;63673;49.928;8.150;2023-02-22T00:19:44;990.56;;;4.14;100
75089;BME280;63673;49.928;8.150;2023-02-22T00:20:46;990.58;;;4.14;100
75089;BME280;63673;49.928;8.150;2023-02-22T00:21:50;990.59;;;4.13;100
75089;BME280;63673;49.928;8.150;2023-02-22T00:22:50;990.52;;;4.12;100
75089;BME280;63673;49.928;8.150;2023-02-22T00:23:52;990.5;;;4.1;100
75089;BME280;63673;49.928;8.150;2023-02-22T00:24:55;990.51;;;4.09;100
75089;BME280;63673;49.928;8.150;2023-02-22T00:26:05;990.54;;;4.08;100
75089;BME280;63673;49.928;8.150;2023-02-22T00:27:06;990.5;;;4.06;100
75089;BME280;63673;49.928;8.150;2023-02-22T00:28:08;990.48;;;4.06;100
75089;BME280;63673;49.928;8.150;2023-02-22T00:29:14;990.48;;;4.04;100
75089;BME280;63673;49.928;8.150;2023-02-22T00:30:18;990.5;;;4.03;100
75089;BME280;63673;49.928;8.150;2023-02-22T00:31:19;990.47;;;4.02;100
75089;BME280;63673;49.928;8.150;2023-02-22T00:32:22;990.44;;;4.01;100
75089;BME280;63673;49.928;8.150;2023-02-22T00:33:22;990.47;;;4;100
75089;BME280;63673;49.928;8.150;2023-02-22T00:34:23;990.44;;;3.99;100
75089;BME280;63673;49.928;8.150;2023-02-22T00:35:27;990.43;;;3.99;100
75089;BME280;63673;49.928;8.150;2023-02-22T00:36:27;990.48;;;3.97;100
75089;BME280;63673;49.928;8.150;2023-02-22T00:37:29;990.41;;;3.97;100
75089;BME280;63673;49.928;8.150;2023-02-22T00:38:41;990.43;;;3.96;100
75089;BME280;63673;49.928;8.150;2023-02-22T00:39:45;990.45;;;3.94;100
75089;BME280;63673;49.928;8.150;2023-02-22T00:40:55;990.45;;;3.92;100
75089;BME280;63673;49.928;8.150;2023-02-22T00:41:56;990.46;;;3.9;100
75089;BME280;63673;49.928;8.150;2023-02-22T00:42:59;990.44;;;3.88;100
75089;BME280;63673;49.928;8.150;2023-02-22T00:44:00;990.43;;;3.87;100
75089;BME280;63673;49.928;8.150;2023-02-22T00:45:02;990.43;;;3.85;100
75089;BME280;63673;49.928;8.150;2023-02-22T00:46:04;990.44;;;3.83;100
75089;BME280;63673;49.928;8.150;2023-02-22T00:47:10;990.4;;;3.83;100
75089;BME280;63673;49.928;8.150;2023-02-22T00:48:12;990.41;;;3.8;100
75089;BME280;63673;49.928;8.150;2023-02-22T00:49:14;990.4;;;3.78;100
75089;BME280;63673;49.928;8.150;2023-02-22T00:50:15;990.38;;;3.76;100
75089;BME280;63673;49.928;8.150;2023-02-22T00:51:17;990.38;;;3.74;100
75089;BME280;63673;49.928;8.150;2023-02-22T00:52:19;990.37;;;3.72;100
75089;BME280;63673;49.928;8.150;2023-02-22T00:53:21;990.28;;;3.72;100
75089;BME280;63673;49.928;8.150;2023-02-22T00:54:22;990.4;;;3.7;100
75089;BME280;63673;49.928;8.150;2023-02-22T00:55:26;990.36;;;3.7;100
75089;BME280;63673;49.928;8.150;2023-02-22T00:56:27;990.39;;;3.7;100
75089;BME280;63673;49.928;8.150;2023-02-22T00:57:27;990.35;;;3.69;100
75089;BME280;63673;49.928;8.150;2023-02-22T00:58:29;990.24;;;3.7;100
75089;BME280;63673;49.928;8.150;2023-02-22T00:59:35;990.29;;;3.72;100
75089;BME280;63673;49.928;8.150;2023-02-22T01:00:35;990.3;;;3.74;100
75089;BME280;63673;49.928;8.150;2023-02-22T01:03:34;990.31;;;3.8;100
75089;BME280;63673;49.928;8.150;2023-02-22T01:04:36;990.29;;;3.81;100
75089;BME280;63673;49.928;8.150;2023-02-22T01:05:54;990.22;;;3.85;100
75089;BME280;63673;49.928;8.150;2023-02-22T01:06:59;990.24;;;3.87;100
75089;BME280;63673;49.928;8.150;2023-02-22T01:08:02;990.2;;;3.91;100
75089;BME280;63673;49.928;8.150;2023-02-22T01:09:07;990.25;;;3.93;100
75089;BME280;63673;49.928;8.150;2023-02-22T01:10:11;990.18;;;3.95;100
75089;BME280;63673;49.928;8.150;2023-02-22T01:11:15;990.17;;;3.96;100
75089;BME280;63673;49.928;8.150;2023-02-22T01:12:17;990.17;;;3.97;100
75089;BME280;63673;49.928;8.150;2023-02-22T01:13:18;990.19;;;3.98;100
75089;BME280;63673;49.928;8.150;2023-02-22T01:14:20;990.23;;;3.99;100
75089;BME280;63673;49.928;8.150;2023-02-22T01:15:23;990.21;;;4;100
75089;BME280;63673;49.928;8.150;2023-02-22T01:16:24;990.2;;;4;100
75089;BME280;63673;49.928;8.150;2023-02-22T01:17:26;990.09;;;4.01;100
75089;BME280;63673;49.928;8.150;2023-02-22T01:17:57;990.09;;;4.01;100
75089;BME280;63673;49.928;8.150;2023-02-22T01:18:27;990.18;;;4.01;100
75089;BME280;63673;49.928;8.150;2023-02-22T01:18:58;990.18;;;4.01;100
75089;BME280;63673;49.928;8.150;2023-02-22T01:19:29;990.13;;;4.01;100
75089;BME280;63673;49.928;8.150;2023-02-22T01:20:01;990.13;;;4.01;100
75089;BME280;63673;49.928;8.150;2023-02-22T01:21:01;990.18;;;4;100
75089;BME280;63673;49.928;8.150;2023-02-22T01:21:33;990.18;;;4.01;100
75089;BME280;63673;49.928;8.150;2023-02-22T01:22:34;990.17;;;4.01;100
75089;BME280;63673;49.928;8.150;2023-02-22T01:23:06;990.17;;;4.01;100
75089;BME280;63673;49.928;8.150;2023-02-22T01:24:27;990.16;;;4.03;100
75089;BME280;63673;49.928;8.150;2023-02-22T01:25:47;990.13;;;4.03;100
75089;BME280;63673;49.928;8.150;2023-02-22T01:26:49;990.14;;;4.04;100
75089;BME280;63673;49.928;8.150;2023-02-22T01:27:58;990.12;;;4.04;100
75089;BME280;63673;49.928;8.150;2023-02-22T01:28:59;990.12;;;4.03;100
75089;BME280;63673;49.928;8.150;2023-02-22T01:30:10;990.14;;;4.03;100
75089;BME280;63673;49.928;8.150;2023-02-22T01:31:11;990.1;;;4.05;100
75089;BME280;63673;49.928;8.150;2023-02-22T01:32:13;990.1;;;4.05;100
75089;BME280;63673;49.928;8.150;2023-02-22T01:33:15;990.09;;;4.05;100
75089;BME280;63673;49.928;8.150;2023-02-22T01:34:17;990.07;;;4.06;100
75089;BME280;63673;49.928;8.150;2023-02-22T01:35:19;990.07;;;4.05;100
75089;BME280;63673;49.928;8.150;2023-02-22T01:36:19;990.07;;;4.05;100
75089;BME280;63673;49.928;8.150;2023-02-22T01:37:21;990.06;;;4.04;100
75089;BME280;63673;49.928;8.150;2023-02-22T01:38:21;990.03;;;4.03;100
75089;BME280;63673;49.928;8.150;2023-02-22T01:39:23;989.93;;;4.01;100
75089;BME280;63673;49.928;8.150;2023-02-22T01:40:25;990;;;4;100
75089;BME280;63673;49.928;8.150;2023-02-22T01:41:26;990.01;;;3.98;100
75089;BME280;63673;49.928;8.150;2023-02-22T01:42:28;990.01;;;3.95;100
75089;BME280;63673;49.928;8.150;2023-02-22T01:43:30;989.98;;;3.93;100
75089;BME280;63673;49.928;8.150;2023-02-22T01:44:33;989.98;;;3.9;100
75089;BME280;63673;49.928;8.150;2023-02-22T01:45:37;990.01;;;3.88;100
75089;BME280;63673;49.928;8.150;2023-02-22T01:46:35;989.95;;;3.87;100
75089;BME280;63673;49.928;8.150;2023-02-22T01:47:37;989.94;;;3.85;100
75089;BME280;63673;49.928;8.150;2023-02-22T01:48:41;989.98;;;3.83;100
75089;BME280;63673;49.928;8.150;2023-02-22T01:49:41;989.91;;;3.83;100
75089;BME280;63673;49.928;8.150;2023-02-22T01:50:43;989.94;;;3.81;100
75089;BME280;63673;49.928;8.150;2023-02-22T01:51:45;989.86;;;3.79;100
75089;BME280;63673;49.928;8.150;2023-02-22T01:52:45;989.88;;;3.78;100
75089;BME280;63673;49.928;8.150;2023-02-22T01:53:48;989.84;;;3.78;100
75089;BME280;63673;49.928;8.150;2023-02-22T01:54:49;989.88;;;3.76;100
75089;BME280;63673;49.928;8.150;2023-02-22T01:55:51;989.85;;;3.74;100
75089;BME280;63673;49.928;8.150;2023-02-22T01:57:00;989.86;;;3.74;100
75089;BME280;63673;49.928;8.150;2023-02-22T01:57:54;989.85;;;3.71;100
75089;BME280;63673;49.928;8.150;2023-02-22T01:59:02;989.82;;;3.69;100
75089;BME280;63673;49.928;8.150;2023-02-22T02:00:29;989.82;;;3.68;100
75089;BME280;63673;49.928;8.150;2023-02-22T02:01:31;989.76;;;3.66;100
75089;BME280;63673;49.928;8.150;2023-02-22T02:02:33;989.77;;;3.64;100
75089;BME280;63673;49.928;8.150;2023-02-22T02:03:35;989.81;;;3.65;100
75089;BME280;63673;49.928;8.150;2023-02-22T02:04:36;989.83;;;3.65;100
75089;BME280;63673;49.928;8.150;2023-02-22T02:05:38;989.82;;;3.66;100
75089;BME280;63673;49.928;8.150;2023-02-22T02:06:39;989.81;;;3.66;100
75089;BME280;63673;49.928;8.150;2023-02-22T02:07:42;989.83;;;3.68;100
75089;BME280;63673;49.928;8.150;2023-02-22T02:08:45;989.79;;;3.68;100
75089;BME280;63673;49.928;8.150;2023-02-22T02:09:46;989.8;;;3.68;100
75089;BME280;63673;49.928;8.150;2023-02-22T02:10:47;989.82;;;3.69;100
75089;BME280;63673;49.928;8.150;2023-02-22T02:11:49;989.82;;;3.71;100
75089;BME280;63673;49.928;8.150;2023-02-22T02:12:50;989.84;;;3.69;100
75089;BME280;63673;49.928;8.150;2023-02-22T02:13:53;989.81;;;3.66;100
75089;BME280;63673;49.928;8.150;2023-02-22T02:15:10;989.83;;;3.64;100
75089;BME280;63673;49.928;8.150;2023-02-22T02:15:55;989.84;;;3.59;100
75089;BME280;63673;49.928;8.150;2023-02-22T02:16:57;989.79;;;3.55;100
75089;BME280;63673;49.928;8.150;2023-02-22T02:18:00;989.8;;;3.51;100
75089;BME280;63673;49.928;8.150;2023-02-22T02:19:08;989.87;;;3.48;100
75089;BME280;63673;49.928;8.150;2023-02-22T02:20:09;989.82;;;3.45;100
75089;BME280;63673;49.928;8.150;2023-02-22T02:21:17;989.84;;;3.41;100
75089;BME280;63673;49.928;8.150;2023-02-22T02:22:18;989.82;;;3.39;100
75089;BME280;63673;49.928;8.150;2023-02-22T02:23:16;989.86;;;3.37;100
75089;BME280;63673;49.928;8.150;2023-02-22T02:24:54;989.85;;;3.35;100
75089;BME280;63673;49.928;8.150;2023-02-22T02:26:43;989.83;;;3.3;100
75089;BME280;63673;49.928;8.150;2023-02-22T02:27:45;989.78;;;3.27;100
75089;BME280;63673;49.928;8.150;2023-02-22T02:28:56;989.78;;;3.25;100
75089;BME280;63673;49.928;8.150;2023-02-22T02:29:50;989.79;;;3.24;100
75089;BME280;63673;49.928;8.150;2023-02-22T02:30:48;989.8;;;3.23;100
75089;BME280;63673;49.928;8.150;2023-02-22T02:32:06;989.74;;;3.21;100
75089;BME280;63673;49.928;8.150;2023-02-22T02:32:51;989.73;;;3.2;100
75089;BME280;63673;49.928;8.150;2023-02-22T02:33:52;989.69;;;3.18;100
75089;BME280;63673;49.928;8.150;2023-02-22T02:34:54;989.71;;;3.17;100
75089;BME280;63673;49.928;8.150;2023-02-22T02:35:55;989.7;;;3.16;100
75089;BME280;63673;49.928;8.150;2023-02-22T02:36:57;989.72;;;3.15;100
75089;BME280;63673;49.928;8.150;2023-02-22T02:38:00;989.64;;;3.13;100
75089;BME280;63673;49.928;8.150;2023-02-22T02:39:01;989.65;;;3.12;100
75089;BME280;63673;49.928;8.150;2023-02-22T02:40:05;989.65;;;3.11;100
75089;BME280;63673;49.928;8.150;2023-02-22T02:41:04;989.68;;;3.1;100
75089;BME280;63673;49.928;8.150;2023-02-22T02:42:05;989.71;;;3.1;100
75089;BME280;63673;49.928;8.150;2023-02-22T02:43:09;989.65;;;3.1;100
75089;BME280;63673;49.928;8.150;2023-02-22T02:44:10;989.65;;;3.09;100
75089;BME280;63673;49.928;8.150;2023-02-22T02:45:10;989.65;;;3.09;100
75089;BME280;63673;49.928;8.150;2023-02-22T02:46:13;989.63;;;3.09;100
75089;BME280;63673;49.928;8.150;2023-02-22T02:47:13;989.65;;;3.07;100
75089;BME280;63673;49.928;8.150;2023-02-22T02:48:15;989.66;;;3.07;100
75089;BME280;63673;49.928;8.150;2023-02-22T02:49:18;989.68;;;3.05;100
75089;BME280;63673;49.928;8.150;2023-02-22T02:50:19;989.63;;;3.03;100
75089;BME280;63673;49.928;8.150;2023-02-22T02:51:20;989.6;;;3;100
75089;BME280;63673;49.928;8.150;2023-02-22T02:52:22;989.62;;;2.98;100
75089;BME280;63673;49.928;8.150;2023-02-22T02:53:24;989.64;;;2.95;100
75089;BME280;63673;49.928;8.150;2023-02-22T02:54:25;989.61;;;2.92;100
75089;BME280;63673;49.928;8.150;2023-02-22T02:55:28;989.63;;;2.91;100
75089;BME280;63673;49.928;8.150;2023-02-22T02:56:29;989.55;;;2.89;100
75089;BME280;63673;49.928;8.150;2023-02-22T02:57:31;989.58;;;2.87;100
75089;BME280;63673;49.928;8.150;2023-02-22T02:58:32;989.61;;;2.85;100
75089;BME280;63673;49.928;8.150;2023-02-22T02:59:35;989.58;;;2.84;100
75089;BME280;63673;49.928;8.150;2023-02-22T03:00:38;989.56;;;2.82;100
75089;BME280;63673;49.928;8.150;2023-02-22T03:01:43;989.52;;;2.8;100
75089;BME280;63673;49.928;8.150;2023-02-22T03:02:41;989.47;;;2.79;100
75089;BME280;63673;49.928;8.150;2023-02-22T03:03:44;989.51;;;2.79;100
75089;BME280;63673;49.928;8.150;2023-02-22T03:04:47;989.43;;;2.79;100
75089;BME280;63673;49.928;8.150;2023-02-22T03:05:50;989.48;;;2.78;100
75089;BME280;63673;49.928;8.150;2023-02-22T03:06:49;989.44;;;2.78;100
75089;BME280;63673;49.928;8.150;2023-02-22T03:07:49;989.44;;;2.78;100
75089;BME280;63673;49.928;8.150;2023-02-22T03:08:51;989.4;;;2.77;100
75089;BME280;63673;49.928;8.150;2023-02-22T03:09:59;989.44;;;2.77;100
75089;BME280;63673;49.928;8.150;2023-02-22T03:11:01;989.19;;;2.76;100
75089;BME280;63673;49.928;8.150;2023-02-22T03:12:03;989.43;;;2.76;100
75089;BME280;63673;49.928;8.150;2023-02-22T03:13:07;989.4;;;2.76;100
75089;BME280;63673;49.928;8.150;2023-02-22T03:14:05;989.41;;;2.77;100
75089;BME280;63673;49.928;8.150;2023-02-22T03:15:09;989.4;;;2.79;100
75089;BME280;63673;49.928;8.150;2023-02-22T03:16:10;989.41;;;2.81;100
75089;BME280;63673;49.928;8.150;2023-02-22T03:17:12;989.37;;;2.82;100
75089;BME280;63673;49.928;8.150;2023-02-22T03:18:13;989.39;;;2.84;100
75089;BME280;63673;49.928;8.150;2023-02-22T03:19:14;989.45;;;2.84;100
75089;BME280;63673;49.928;8.150;2023-02-22T03:20:26;989.39;;;2.88;100
75089;BME280;63673;49.928;8.150;2023-02-22T03:21:32;989.44;;;2.91;100
75089;BME280;63673;49.928;8.150;2023-02-22T03:22:38;989.42;;;2.93;100
75089;BME280;63673;49.928;8.150;2023-02-22T03:23:41;989.44;;;2.93;100
75089;BME280;63673;49.928;8.150;2023-02-22T03:24:47;989.42;;;2.92;100
75089;BME280;63673;49.928;8.150;2023-02-22T03:25:50;989.4;;;2.92;100
75089;BME280;63673;49.928;8.150;2023-02-22T03:26:52;989.42;;;2.86;100
75089;BME280;63673;49.928;8.150;2023-02-22T03:27:52;989.45;;;2.82;100
75089;BME280;63673;49.928;8.150;2023-02-22T03:28:53;989.3;;;2.77;100
75089;BME280;63673;49.928;8.150;2023-02-22T03:29:56;989.34;;;2.74;100
75089;BME280;63673;49.928;8.150;2023-02-22T03:30:58;989.37;;;2.71;100
75089;BME280;63673;49.928;8.150;2023-02-22T03:31:59;989.37;;;2.67;100
75089;BME280;63673;49.928;8.150;2023-02-22T03:33:02;989.36;;;2.65;100
75089;BME280;63673;49.928;8.150;2023-02-22T03:34:04;989.31;;;2.62;100
75089;BME280;63673;49.928;8.150;2023-02-22T03:35:04;989.31;;;2.61;100
75089;BME280;63673;49.928;8.150;2023-02-22T03:36:07;989.31;;;2.59;100
75089;BME280;63673;49.928;8.150;2023-02-22T03:37:10;989.29;;;2.59;100
75089;BME280;63673;49.928;8.150;2023-02-22T03:38:10;989.32;;;2.59;100
75089;BME280;63673;49.928;8.150;2023-02-22T03:39:13;989.3;;;2.58;100
75089;BME280;63673;49.928;8.150;2023-02-22T03:40:14;989.34;;;2.58;100
75089;BME280;63673;49.928;8.150;2023-02-22T03:41:15;989.36;;;2.58;100
75089;BME280;63673;49.928;8.150;2023-02-22T03:42:16;989.28;;;2.58;100
75089;BME280;63673;49.928;8.150;2023-02-22T03:43:20;989.24;;;2.58;100
75089;BME280;63673;49.928;8.150;2023-02-22T03:44:22;989.25;;;2.6;100
75089;BME280;63673;49.928;8.150;2023-02-22T03:45:21;989.22;;;2.6;100
75089;BME280;63673;49.928;8.150;2023-02-22T03:46:23;989.26;;;2.61;100
75089;BME280;63673;49.928;8.150;2023-02-22T03:47:27;989.24;;;2.61;100
75089;BME280;63673;49.928;8.150;2023-02-22T03:48:29;989.26;;;2.61;100
75089;BME280;63673;49.928;8.150;2023-02-22T03:49:30;989.29;;;2.62;100
75089;BME280;63673;49.928;8.150;2023-02-22T03:50:31;989.27;;;2.62;100
75089;BME280;63673;49.928;8.150;2023-02-22T03:51:32;989.24;;;2.62;100
75089;BME280;63673;49.928;8.150;2023-02-22T03:52:33;989.25;;;2.64;100
75089;BME280;63673;49.928;8.150;2023-02-22T03:53:35;989.22;;;2.63;100
75089;BME280;63673;49.928;8.150;2023-02-22T03:54:37;989.27;;;2.66;100
75089;BME280;63673;49.928;8.150;2023-02-22T03:55:39;989.19;;;2.67;100
75089;BME280;63673;49.928;8.150;2023-02-22T03:56:41;989.26;;;2.68;100
75089;BME280;63673;49.928;8.150;2023-02-22T03:57:43;989.24;;;2.69;100
75089;BME280;63673;49.928;8.150;2023-02-22T03:58:44;989.22;;;2.69;100
75089;BME280;63673;49.928;8.150;2023-02-22T03:59:45;989.25;;;2.68;100
75089;BME280;63673;49.928;8.150;2023-02-22T04:00:47;989.28;;;2.67;100
75089;BME280;63673;49.928;8.150;2023-02-22T04:01:49;989.26;;;2.66;100
75089;BME280;63673;49.928;8.150;2023-02-22T04:02:51;989.27;;;2.62;100
75089;BME280;63673;49.928;8.150;2023-02-22T04:03:54;989.27;;;2.59;100
75089;BME280;63673;49.928;8.150;2023-02-22T04:04:54;989.28;;;2.55;100
75089;BME280;63673;49.928;8.150;2023-02-22T04:06:17;989.31;;;2.49;100
75089;BME280;63673;49.928;8.150;2023-02-22T04:07:21;989.21;;;2.43;100
75089;BME280;63673;49.928;8.150;2023-02-22T04:08:23;989.24;;;2.38;100
75089;BME280;63673;49.928;8.150;2023-02-22T04:09:25;989.25;;;2.33;100
75089;BME280;63673;49.928;8.150;2023-02-22T04:10:26;989.26;;;2.28;100
75089;BME280;63673;49.928;8.150;2023-02-22T04:11:28;989.24;;;2.25;100
75089;BME280;63673;49.928;8.150;2023-02-22T04:12:31;989.2;;;2.21;100
75089;BME280;63673;49.928;8.150;2023-02-22T04:13:31;989.18;;;2.18;100
75089;BME280;63673;49.928;8.150;2023-02-22T04:14:33;989.17;;;2.17;100
75089;BME280;63673;49.928;8.150;2023-02-22T04:15:35;989.27;;;2.16;100
75089;BME280;63673;49.928;8.150;2023-02-22T04:16:37;989.16;;;2.15;100
75089;BME280;63673;49.928;8.150;2023-02-22T04:17:38;989.2;;;2.13;100
75089;BME280;63673;49.928;8.150;2023-02-22T04:18:40;989.19;;;2.12;100
75089;BME280;63673;49.928;8.150;2023-02-22T04:19:42;989.2;;;2.11;100
75089;BME280;63673;49.928;8.150;2023-02-22T04:20:59;989.19;;;2.11;100
75089;BME280;63673;49.928;8.150;2023-02-22T04:21:45;989.19;;;2.1;100
75089;BME280;63673;49.928;8.150;2023-02-22T04:22:47;989.17;;;2.09;100
75089;BME280;63673;49.928;8.150;2023-02-22T04:23:49;989.15;;;2.09;100
75089;BME280;63673;49.928;8.150;2023-02-22T04:24:51;989.18;;;2.1;100
75089;BME280;63673;49.928;8.150;2023-02-22T04:25:52;989.2;;;2.1;100
75089;BME280;63673;49.928;8.150;2023-02-22T04:26:54;989.18;;;2.1;100
75089;BME280;63673;49.928;8.150;2023-02-22T04:27:56;989.13;;;2.1;100
75089;BME280;63673;49.928;8.150;2023-02-22T04:28:57;989.09;;;2.08;100
75089;BME280;63673;49.928;8.150;2023-02-22T04:29:59;989.13;;;2.07;100
75089;BME280;63673;49.928;8.150;2023-02-22T04:31:01;989.12;;;2.05;100
75089;BME280;63673;49.928;8.150;2023-02-22T04:32:03;989.14;;;2.04;100
75089;BME280;63673;49.928;8.150;2023-02-22T04:33:04;989.05;;;2.02;100
75089;BME280;63673;49.928;8.150;2023-02-22T04:34:06;989.17;;;1.99;100
75089;BME280;63673;49.928;8.150;2023-02-22T04:35:08;989.11;;;1.97;100
75089;BME280;63673;49.928;8.150;2023-02-22T04:36:10;989.14;;;1.95;100
75089;BME280;63673;49.928;8.150;2023-02-22T04:37:11;989.08;;;1.93;100
75089;BME280;63673;49.928;8.150;2023-02-22T04:38:13;989.07;;;1.91;100
75089;BME280;63673;49.928;8.150;2023-02-22T04:39:15;989.13;;;1.9;100
75089;BME280;63673;49.928;8.150;2023-02-22T04:40:17;989.03;;;1.87;100
75089;BME280;63673;49.928;8.150;2023-02-22T04:41:18;989.01;;;1.86;100
75089;BME280;63673;49.928;8.150;2023-02-22T04:42:20;989.05;;;1.85;100
75089;BME280;63673;49.928;8.150;2023-02-22T04:43:22;989;;;1.84;100
75089;BME280;63673;49.928;8.150;2023-02-22T04:44:24;989.01;;;1.85;100
75089;BME280;63673;49.928;8.150;2023-02-22T04:45:25;989.07;;;1.85;100
75089;BME280;63673;49.928;8.150;2023-02-22T04:46:34;989.01;;;1.85;100
75089;BME280;63673;49.928;8.150;2023-02-22T04:47:29;988.98;;;1.86;100
75089;BME280;63673;49.928;8.150;2023-02-22T04:48:30;989;;;1.86;100
75089;BME280;63673;49.928;8.150;2023-02-22T04:49:32;988.99;;;1.86;100
75089;BME280;63673;49.928;8.150;2023-02-22T04:50:34;988.95;;;1.86;100
75089;BME280;63673;49.928;8.150;2023-02-22T04:51:36;988.98;;;1.87;100
75089;BME280;63673;49.928;8.150;2023-02-22T04:52:37;988.92;;;1.87;100
75089;BME280;63673;49.928;8.150;2023-02-22T04:53:39;988.94;;;1.87;100
75089;BME280;63673;49.928;8.150;2023-02-22T04:54:41;988.85;;;1.89;100
75089;BME280;63673;49.928;8.150;2023-02-22T04:55:46;988.95;;;1.9;100
75089;BME280;63673;49.928;8.150;2023-02-22T04:56:44;988.95;;;1.9;100
75089;BME280;63673;49.928;8.150;2023-02-22T04:57:47;988.94;;;1.88;100
75089;BME280;63673;49.928;8.150;2023-02-22T04:58:48;988.92;;;1.87;100
75089;BME280;63673;49.928;8.150;2023-02-22T04:59:49;988.9;;;1.84;100
75089;BME280;63673;49.928;8.150;2023-02-22T05:00:51;988.94;;;1.8;100
75089;BME280;63673;49.928;8.150;2023-02-22T05:01:53;988.88;;;1.76;100
75089;BME280;63673;49.928;8.150;2023-02-22T05:02:55;988.9;;;1.74;100
75089;BME280;63673;49.928;8.150;2023-02-22T05:03:56;988.94;;;1.71;100
75089;BME280;63673;49.928;8.150;2023-02-22T05:04:58;988.92;;;1.68;100
75089;BME280;63673;49.928;8.150;2023-02-22T05:06:00;988.87;;;1.66;100
75089;BME280;63673;49.928;8.150;2023-02-22T05:07:01;988.86;;;1.67;100
75089;BME280;63673;49.928;8.150;2023-02-22T05:08:03;988.84;;;1.69;100
75089;BME280;63673;49.928;8.150;2023-02-22T05:09:05;988.87;;;1.74;100
75089;BME280;63673;49.928;8.150;2023-02-22T05:10:07;988.88;;;1.77;100
75089;BME280;63673;49.928;8.150;2023-02-22T05:11:08;988.84;;;1.81;100
75089;BME280;63673;49.928;8.150;2023-02-22T05:12:10;988.84;;;1.83;100
75089;BME280;63673;49.928;8.150;2023-02-22T05:13:12;988.88;;;1.85;100
75089;BME280;63673;49.928;8.150;2023-02-22T05:14:14;988.92;;;1.86;100
75089;BME280;63673;49.928;8.150;2023-02-22T05:15:16;988.84;;;1.87;100
75089;BME280;63673;49.928;8.150;2023-02-22T05:16:17;988.87;;;1.86;100
75089;BME280;63673;49.928;8.150;2023-02-22T05:17:19;988.85;;;1.85;100
75089;BME280;63673;49.928;8.150;2023-02-22T05:18:21;988.91;;;1.85;100
75089;BME280;63673;49.928;8.150;2023-02-22T05:19:22;988.87;;;1.84;100
75089;BME280;63673;49.928;8.150;2023-02-22T05:20:25;988.86;;;1.82;100
75089;BME280;63673;49.928;8.150;2023-02-22T05:21:26;988.86;;;1.81;100
75089;BME280;63673;49.928;8.150;2023-02-22T05:22:27;988.83;;;1.82;100
75089;BME280;63673;49.928;8.150;2023-02-22T05:23:29;988.88;;;1.82;100
75089;BME280;63673;49.928;8.150;2023-02-22T05:24:31;988.84;;;1.83;100
75089;BME280;63673;49.928;8.150;2023-02-22T05:25:33;988.77;;;1.85;100
75089;BME280;63673;49.928;8.150;2023-02-22T05:26:34;988.79;;;1.85;100
75089;BME280;63673;49.928;8.150;2023-02-22T05:27:36;988.81;;;1.86;100
75089;BME280;63673;49.928;8.150;2023-02-22T05:28:38;988.8;;;1.86;100
75089;BME280;63673;49.928;8.150;2023-02-22T05:29:40;988.83;;;1.87;100
75089;BME280;63673;49.928;8.150;2023-02-22T05:30:41;988.77;;;1.87;100
75089;BME280;63673;49.928;8.150;2023-02-22T05:31:43;988.69;;;1.87;100
75089;BME280;63673;49.928;8.150;2023-02-22T05:32:45;988.74;;;1.88;100
75089;BME280;63673;49.928;8.150;2023-02-22T05:33:46;988.75;;;1.9;100
75089;BME280;63673;49.928;8.150;2023-02-22T05:34:48;988.71;;;1.9;100
75089;BME280;63673;49.928;8.150;2023-02-22T05:35:50;988.77;;;1.93;100
75089;BME280;63673;49.928;8.150;2023-02-22T05:36:52;988.76;;;1.95;100
75089;BME280;63673;49.928;8.150;2023-02-22T05:37:54;988.75;;;1.95;100
75089;BME280;63673;49.928;8.150;2023-02-22T05:38:58;988.74;;;1.95;100
75089;BME280;63673;49.928;8.150;2023-02-22T05:39:57;988.76;;;1.95;100
75089;BME280;63673;49.928;8.150;2023-02-22T05:40:59;988.79;;;1.95;100
75089;BME280;63673;49.928;8.150;2023-02-22T05:42:00;988.77;;;1.93;100
75089;BME280;63673;49.928;8.150;2023-02-22T05:43:02;988.78;;;1.92;100
75089;BME280;63673;49.928;8.150;2023-02-22T05:44:04;988.73;;;1.92;100
75089;BME280;63673;49.928;8.150;2023-02-22T05:45:06;988.76;;;1.9;100
75089;BME280;63673;49.928;8.150;2023-02-22T05:46:07;988.75;;;1.91;100
75089;BME280;63673;49.928;8.150;2023-02-22T05:47:09;988.76;;;1.89;100
75089;BME280;63673;49.928;8.150;2023-02-22T05:48:11;988.78;;;1.89;100
75089;BME280;63673;49.928;8.150;2023-02-22T05:49:13;988.73;;;1.89;100
75089;BME280;63673;49.928;8.150;2023-02-22T05:50:15;988.74;;;1.88;100
75089;BME280;63673;49.928;8.150;2023-02-22T05:51:16;988.73;;;1.89;100
75089;BME280;63673;49.928;8.150;2023-02-22T05:52:18;988.75;;;1.91;100
75089;BME280;63673;49.928;8.150;2023-02-22T05:53:20;988.72;;;1.94;100
75089;BME280;63673;49.928;8.150;2023-02-22T05:54:21;988.72;;;1.94;100